Time;durP1;ratioP1;P1;durP2;ratioP2;P2;SDS_P1;SDS_P2;PMS_P1;PMS_P2;Temp;Humidity;BMP_temperature;BMP_pressure;BME280_temperature;BME280_humidity;BME280_pressure;Samples;Min_cycle;Max_cycle;Signal;HPM_P1;HPM_P2
2022/01/08 00:01:38;;;;;;;3.87;2.50;;;2.20;99.90;;;;;;4181892;28;20487;-81
2022/01/08 00:03:41;;;;;;;4.77;2.60;;;2.40;99.90;;;;;;4182401;28;20532;-81
2022/01/08 00:05:42;;;;;;;3.53;2.53;;;2.40;99.90;;;;;;4172285;28;20460;-82
2022/01/08 00:07:44;;;;;;;2.97;2.23;;;2.40;99.90;;;;;;4180682;28;20467;-81
2022/01/08 00:09:47;;;;;;;4.67;2.97;;;2.40;99.90;;;;;;4183433;28;20460;-81
2022/01/08 00:11:49;;;;;;;6.00;3.00;;;2.40;99.90;;;;;;4206148;22;20511;-76
2022/01/08 00:13:51;;;;;;;4.37;2.50;;;2.40;99.90;;;;;;4195612;28;20451;-76
2022/01/08 00:15:52;;;;;;;4.30;2.67;;;2.40;99.90;;;;;;4193682;28;20466;-76
2022/01/08 00:17:54;;;;;;;4.97;2.83;;;2.40;99.90;;;;;;4194479;28;20466;-76
2022/01/08 00:19:56;;;;;;;6.13;2.83;;;2.40;99.90;;;;;;4193632;28;20468;-76
2022/01/08 00:21:57;;;;;;;5.03;2.50;;;2.40;99.90;;;;;;4195277;28;20498;-75
2022/01/08 00:23:59;;;;;;;6.30;3.20;;;2.40;99.90;;;;;;4196438;28;21072;-76
2022/01/08 00:26:04;;;;;;;6.43;2.33;;;2.40;99.90;;;;;;4192657;28;20843;-76
2022/01/08 00:28:05;;;;;;;3.27;2.40;;;2.40;99.90;;;;;;4194608;28;20966;-75
2022/01/08 00:30:08;;;;;;;3.10;2.50;;;2.40;99.90;;;;;;4195786;28;20505;-76
2022/01/08 00:32:10;;;;;;;4.00;2.37;;;2.40;99.90;;;;;;4189845;28;20746;-76
2022/01/08 00:34:12;;;;;;;3.47;2.27;;;2.40;99.90;;;;;;4193078;28;20463;-76
2022/01/08 00:36:14;;;;;;;3.93;2.53;;;2.40;99.90;;;;;;4193337;28;20459;-76
2022/01/08 00:38:16;;;;;;;4.13;2.30;;;2.40;99.90;;;;;;4195371;28;20531;-75
2022/01/08 00:40:17;;;;;;;5.27;2.70;;;2.40;99.90;;;;;;4193037;28;20532;-76
2022/01/08 00:42:21;;;;;;;3.73;2.57;;;2.40;99.90;;;;;;4192344;28;20501;-75
2022/01/08 00:44:22;;;;;;;4.77;2.30;;;2.40;99.90;;;;;;4194685;28;20498;-76
2022/01/08 00:46:24;;;;;;;4.30;2.43;;;2.40;99.90;;;;;;4193486;28;20475;-76
2022/01/08 00:48:26;;;;;;;4.37;2.53;;;2.40;99.90;;;;;;4192348;28;20828;-76
2022/01/08 00:50:29;;;;;;;3.50;2.20;;;2.40;99.90;;;;;;4193871;28;20475;-76
2022/01/08 00:52:30;;;;;;;4.37;2.67;;;2.40;99.90;;;;;;4193689;28;20463;-76
2022/01/08 00:54:35;;;;;;;4.57;2.30;;;2.40;99.90;;;;;;4191330;28;20467;-76
2022/01/08 00:56:37;;;;;;;3.43;2.50;;;2.40;99.90;;;;;;4195173;28;20467;-75
2022/01/08 00:58:40;;;;;;;4.43;2.40;;;2.40;99.90;;;;;;4192073;28;20458;-75
2022/01/08 01:00:42;;;;;;;4.17;2.30;;;2.30;99.90;;;;;;4196729;28;20480;-75
2022/01/08 01:02:44;;;;;;;5.30;2.67;;;2.30;99.90;;;;;;4195470;28;20521;-75
2022/01/08 01:04:46;;;;;;;3.53;2.40;;;2.30;99.90;;;;;;4192890;28;20922;-75
2022/01/08 01:06:48;;;;;;;3.70;2.23;;;2.20;99.90;;;;;;4197122;28;20513;-76
2022/01/08 01:08:50;;;;;;;3.17;2.00;;;2.20;99.90;;;;;;4195569;28;20524;-76
2022/01/08 01:10:52;;;;;;;4.17;2.50;;;2.20;99.90;;;;;;4195931;28;20501;-76
2022/01/08 01:12:53;;;;;;;3.20;2.20;;;2.20;99.90;;;;;;4194740;28;20471;-76
2022/01/08 01:14:56;;;;;;;4.30;2.47;;;2.30;99.90;;;;;;4192647;28;20459;-76
2022/01/08 01:16:58;;;;;;;4.63;2.23;;;2.20;99.90;;;;;;4196276;28;20600;-76
2022/01/08 01:19:02;;;;;;;5.27;2.47;;;2.10;99.90;;;;;;4194642;28;20468;-75
2022/01/08 01:21:04;;;;;;;4.70;2.30;;;2.10;99.90;;;;;;4197554;28;21186;-75
2022/01/08 01:23:10;;;;;;;2.67;1.90;;;2.10;99.90;;;;;;4197520;28;20546;-76
2022/01/08 01:25:16;;;;;;;2.67;1.90;;;2.10;99.90;;;;;;4198468;28;20923;-76
2022/01/08 01:27:49;;;;;;;3.07;2.43;;;2.00;99.90;;;;;;4191320;28;20458;-75
2022/01/08 01:29:54;;;;;;;3.80;1.90;;;2.00;99.90;;;;;;4198061;28;20476;-75
2022/01/08 01:41:25;;;;;;;3.53;2.27;;;1.80;99.90;;;;;;4199185;28;20499;-75
2022/01/08 01:46:59;;;;;;;4.47;2.00;;;1.80;99.90;;;;;;4196422;28;20467;-75
2022/01/08 01:48:12;;;;;;;3.53;2.40;;;1.80;99.90;;;;;;4200417;28;20874;-75
2022/01/08 01:50:13;;;;;;;4.20;2.13;;;1.70;99.90;;;;;;4197682;28;20462;-75
2022/01/08 01:52:17;;;;;;;3.07;2.23;;;1.70;99.90;;;;;;4198421;28;20492;-75
2022/01/08 01:54:19;;;;;;;3.17;2.07;;;1.70;99.90;;;;;;4197629;28;20894;-75
2022/01/08 01:56:22;;;;;;;3.10;2.00;;;1.70;99.90;;;;;;4198532;28;20974;-74
2022/01/08 01:58:23;;;;;;;3.43;2.20;;;1.70;99.90;;;;;;4199031;28;20474;-75
2022/01/08 02:00:25;;;;;;;3.33;2.27;;;1.70;99.90;;;;;;4189916;28;20544;-75
2022/01/08 02:02:27;;;;;;;3.27;2.20;;;1.60;99.90;;;;;;4188489;28;20525;-75
2022/01/08 02:04:30;;;;;;;3.10;2.30;;;1.60;99.90;;;;;;4186199;28;20502;-76
2022/01/08 02:06:32;;;;;;;3.47;2.33;;;1.60;99.90;;;;;;4199327;28;20474;-75
2022/01/08 02:08:34;;;;;;;4.53;2.40;;;1.60;99.90;;;;;;4191091;28;21261;-75
2022/01/08 02:10:36;;;;;;;3.33;2.30;;;1.50;99.90;;;;;;4186881;28;20510;-76
2022/01/08 02:12:38;;;;;;;4.60;2.20;;;1.50;99.90;;;;;;4199285;28;20462;-74
2022/01/08 02:14:40;;;;;;;3.17;2.17;;;1.50;99.90;;;;;;4199198;28;20512;-75
2022/01/08 02:16:41;;;;;;;3.43;2.50;;;1.50;99.90;;;;;;4197675;28;20465;-75
2022/01/08 02:18:45;;;;;;;3.37;2.00;;;1.50;99.90;;;;;;4194492;28;21081;-75
2022/01/08 02:20:50;;;;;;;3.50;2.40;;;1.50;99.90;;;;;;4198753;28;20472;-75
2022/01/08 02:22:52;;;;;;;4.03;1.93;;;1.50;99.90;;;;;;4189537;28;20502;-75
2022/01/08 02:24:54;;;;;;;3.77;2.10;;;1.50;99.90;;;;;;4196063;28;20551;-75
2022/01/08 02:26:56;;;;;;;3.40;2.20;;;1.40;99.90;;;;;;4203103;28;20823;-75
2022/01/08 02:28:57;;;;;;;3.00;2.10;;;1.40;99.90;;;;;;4197828;28;20517;-75
2022/01/08 02:30:59;;;;;;;5.23;2.00;;;1.40;99.90;;;;;;4197509;28;20561;-75
2022/01/08 02:33:01;;;;;;;5.30;2.27;;;1.40;99.90;;;;;;4201218;28;20469;-75
2022/01/08 02:35:03;;;;;;;4.37;2.07;;;1.40;99.90;;;;;;4196515;28;20496;-76
2022/01/08 02:37:07;;;;;;;5.77;2.20;;;1.40;99.90;;;;;;4182673;28;20458;-76
2022/01/08 02:39:09;;;;;;;3.03;2.10;;;1.50;99.90;;;;;;4188951;28;20932;-75
2022/01/08 02:41:12;;;;;;;2.50;1.90;;;1.50;99.90;;;;;;4198454;28;20473;-75
2022/01/08 02:43:13;;;;;;;4.73;2.00;;;1.50;99.90;;;;;;4214788;28;20835;-75
2022/01/08 02:45:16;;;;;;;4.73;2.00;;;1.40;99.90;;;;;;4197009;28;20910;-75
2022/01/08 02:47:19;;;;;;;4.73;2.40;;;1.50;99.90;;;;;;4204240;28;20473;-75
2022/01/08 02:49:23;;;;;;;2.67;1.93;;;1.50;99.90;;;;;;4195228;28;20455;-75
2022/01/08 02:51:25;;;;;;;4.93;2.10;;;1.40;99.90;;;;;;4186870;28;20495;-75
2022/01/08 02:53:28;;;;;;;2.50;1.53;;;1.50;99.90;;;;;;4212555;28;20996;-76
2022/01/08 02:55:30;;;;;;;3.20;2.00;;;1.40;99.90;;;;;;4199325;28;20505;-75
2022/01/08 02:57:32;;;;;;;3.13;1.83;;;1.40;99.90;;;;;;4198522;28;20521;-75
2022/01/08 02:59:34;;;;;;;3.10;1.80;;;1.40;99.90;;;;;;4195139;28;20456;-75
2022/01/08 03:01:36;;;;;;;3.87;2.30;;;1.40;99.90;;;;;;4181159;28;20503;-75
2022/01/08 03:03:38;;;;;;;2.80;1.93;;;1.40;99.90;;;;;;4183793;28;20472;-75
2022/01/08 03:05:40;;;;;;;3.07;2.03;;;1.40;99.90;;;;;;4200569;28;20541;-76
2022/01/08 03:07:43;;;;;;;2.77;1.90;;;1.40;99.90;;;;;;4197512;28;20503;-75
2022/01/08 03:09:55;;;;;;;2.13;1.80;;;1.40;99.90;;;;;;4193943;28;20458;-75
2022/01/08 03:11:57;;;;;;;3.00;1.73;;;1.40;99.90;;;;;;4198787;28;20493;-76
2022/01/08 03:13:59;;;;;;;3.13;1.80;;;1.40;99.90;;;;;;4191217;28;20818;-75
2022/01/08 03:16:01;;;;;;;2.73;2.00;;;1.30;99.90;;;;;;4199071;28;20460;-75
2022/01/08 03:18:03;;;;;;;2.50;1.77;;;1.30;99.90;;;;;;4215344;28;20447;-75
2022/01/08 03:20:09;;;;;;;3.00;1.70;;;1.40;99.90;;;;;;4202061;28;20540;-75
2022/01/08 03:22:11;;;;;;;1.90;1.60;;;1.30;99.90;;;;;;4198260;28;21043;-75
2022/01/08 03:24:25;;;;;;;2.77;1.70;;;1.30;99.90;;;;;;4205094;28;20498;-75
2022/01/08 03:26:32;;;;;;;3.40;2.03;;;1.30;99.90;;;;;;4186812;28;20527;-75
2022/01/08 03:28:33;;;;;;;3.00;1.97;;;1.30;99.90;;;;;;4197312;28;20453;-75
2022/01/08 03:30:35;;;;;;;3.43;1.80;;;1.20;99.90;;;;;;4197524;28;20480;-74
2022/01/08 03:32:37;;;;;;;2.90;1.60;;;1.20;99.90;;;;;;4198075;28;20516;-75
2022/01/08 03:34:39;;;;;;;2.50;1.70;;;1.20;99.90;;;;;;4195593;28;20481;-75
2022/01/08 03:36:41;;;;;;;3.23;2.03;;;1.20;99.90;;;;;;4194772;28;20534;-75
2022/01/08 03:38:43;;;;;;;3.40;2.20;;;1.20;99.90;;;;;;4200507;28;20931;-75
2022/01/08 03:40:45;;;;;;;3.10;1.80;;;1.20;99.90;;;;;;4190780;28;20995;-75
2022/01/08 03:42:48;;;;;;;3.47;1.67;;;1.20;99.90;;;;;;4200426;28;20515;-75
2022/01/08 03:44:49;;;;;;;2.83;1.77;;;1.20;99.90;;;;;;4193656;28;20498;-76
2022/01/08 03:46:51;;;;;;;2.30;1.37;;;1.20;99.90;;;;;;4205231;28;20453;-76
2022/01/08 03:49:13;;;;;;;2.90;1.80;;;1.20;99.90;;;;;;4205095;28;20480;-74
2022/01/08 03:51:16;;;;;;;3.07;1.60;;;1.20;99.90;;;;;;4196382;28;20497;-76
2022/01/08 03:53:17;;;;;;;3.17;1.67;;;1.20;99.90;;;;;;4193103;28;20885;-76
2022/01/08 03:55:19;;;;;;;3.37;1.67;;;1.20;99.90;;;;;;4192874;28;20833;-75
2022/01/08 03:57:21;;;;;;;6.10;2.00;;;1.20;99.90;;;;;;4196557;28;20462;-75
2022/01/08 03:59:24;;;;;;;3.00;1.80;;;1.20;99.90;;;;;;4197047;28;20463;-75
2022/01/08 04:01:25;;;;;;;3.20;1.93;;;1.20;99.90;;;;;;4190133;28;20495;-75
2022/01/08 04:03:27;;;;;;;2.80;1.60;;;1.20;99.90;;;;;;4198229;28;20848;-75
2022/01/08 04:05:29;;;;;;;2.77;1.77;;;1.20;99.90;;;;;;4201522;28;20481;-75
2022/01/08 04:07:31;;;;;;;4.30;1.93;;;1.20;99.90;;;;;;4197599;28;20518;-75
2022/01/08 04:09:33;;;;;;;3.17;1.80;;;1.20;99.90;;;;;;4197150;28;20504;-75
2022/01/08 04:11:34;;;;;;;4.47;2.00;;;1.20;99.90;;;;;;4186751;28;20498;-75
2022/01/08 04:13:40;;;;;;;2.80;1.80;;;1.20;99.90;;;;;;4185183;28;20490;-75
2022/01/08 04:15:46;;;;;;;2.60;1.90;;;1.20;99.90;;;;;;4197315;28;20450;-74
2022/01/08 04:17:48;;;;;;;2.97;1.87;;;1.20;99.90;;;;;;4197497;28;20468;-75
2022/01/08 04:19:49;;;;;;;4.23;2.07;;;1.20;99.90;;;;;;4191515;28;20533;-75
2022/01/08 04:24:11;;;;;;;3.77;1.70;;;1.20;99.90;;;;;;4184946;28;20818;-75
2022/01/08 04:26:12;;;;;;;3.83;1.73;;;1.20;99.90;;;;;;4196167;28;20489;-75
2022/01/08 04:28:15;;;;;;;3.43;1.80;;;1.20;99.90;;;;;;4195537;28;21049;-74
2022/01/08 04:30:19;;;;;;;2.67;1.90;;;1.20;99.90;;;;;;4196962;28;20467;-75
2022/01/08 04:32:22;;;;;;;3.60;2.00;;;1.20;99.90;;;;;;4196318;28;20955;-75
2022/01/08 04:34:24;;;;;;;2.77;1.70;;;1.30;99.90;;;;;;4193311;28;20485;-75
2022/01/08 04:36:26;;;;;;;2.97;1.87;;;1.20;99.90;;;;;;4197240;28;20463;-75
2022/01/08 04:38:27;;;;;;;2.70;1.70;;;1.20;99.90;;;;;;4213836;28;20485;-75
2022/01/08 04:40:30;;;;;;;3.33;2.27;;;1.20;99.90;;;;;;4198735;28;20496;-75
2022/01/08 04:42:32;;;;;;;6.07;2.20;;;1.10;99.90;;;;;;4189357;28;20530;-74
2022/01/08 04:44:34;;;;;;;3.67;2.33;;;1.20;99.90;;;;;;4186479;28;20461;-75
2022/01/08 04:46:35;;;;;;;3.63;2.13;;;1.20;99.90;;;;;;4193276;28;21065;-75
2022/01/08 04:48:38;;;;;;;3.43;2.03;;;1.20;99.90;;;;;;4197016;28;20537;-74
2022/01/08 04:50:40;;;;;;;4.53;2.20;;;1.20;99.90;;;;;;4195534;28;21021;-74
2022/01/08 04:52:42;;;;;;;3.20;2.20;;;1.20;99.90;;;;;;4180979;28;20851;-75
2022/01/08 04:54:43;;;;;;;2.73;1.93;;;1.20;99.90;;;;;;4187606;28;20955;-75
2022/01/08 04:56:45;;;;;;;3.47;2.10;;;1.20;99.90;;;;;;4195391;28;20448;-75
2022/01/08 04:58:47;;;;;;;2.70;1.87;;;1.20;99.90;;;;;;4195970;28;20456;-74
2022/01/08 05:00:49;;;;;;;3.07;1.87;;;1.20;99.90;;;;;;4190512;28;20501;-74
2022/01/08 05:02:50;;;;;;;4.43;2.50;;;1.20;99.90;;;;;;4196970;28;20814;-75
2022/01/08 05:04:53;;;;;;;2.90;2.00;;;1.20;99.90;;;;;;4188307;28;20463;-75
2022/01/08 05:06:55;;;;;;;4.93;2.27;;;1.20;99.90;;;;;;4197907;28;20470;-75
2022/01/08 05:08:57;;;;;;;3.73;2.17;;;1.20;99.90;;;;;;4207511;28;20450;-75
2022/01/08 05:10:58;;;;;;;3.27;2.20;;;1.20;99.90;;;;;;4195858;28;20664;-75
2022/01/08 05:13:03;;;;;;;3.63;2.13;;;1.20;99.90;;;;;;4195871;28;20455;-75
2022/01/08 05:15:06;;;;;;;3.93;2.27;;;1.20;99.90;;;;;;4193825;28;21017;-74
2022/01/08 05:17:08;;;;;;;4.30;3.00;;;1.20;99.90;;;;;;4199778;28;20458;-75
2022/01/08 05:19:10;;;;;;;6.57;2.73;;;1.20;99.90;;;;;;4210282;28;20476;-75
2022/01/08 05:21:20;;;;;;;3.27;2.60;;;1.20;99.90;;;;;;4193738;28;20490;-74
2022/01/08 05:23:22;;;;;;;3.93;2.43;;;1.20;99.90;;;;;;4196436;28;20546;-75
2022/01/08 05:25:24;;;;;;;3.40;2.57;;;1.20;99.90;;;;;;4193682;28;21067;-74
2022/01/08 05:27:25;;;;;;;3.83;2.30;;;1.20;99.90;;;;;;4196477;28;20885;-75
2022/01/08 05:29:27;;;;;;;5.40;2.53;;;1.20;99.90;;;;;;4196111;28;20462;-75
2022/01/08 05:31:29;;;;;;;3.80;2.60;;;1.30;99.90;;;;;;4186140;28;20540;-75
2022/01/08 05:33:31;;;;;;;3.47;2.30;;;1.30;99.90;;;;;;4191059;28;20484;-74
2022/01/08 05:35:32;;;;;;;5.17;2.47;;;1.30;99.90;;;;;;4188670;28;20943;-74
2022/01/08 05:37:36;;;;;;;5.17;2.40;;;1.20;99.90;;;;;;4213056;28;20494;-75
2022/01/08 05:39:37;;;;;;;4.57;2.60;;;1.30;99.90;;;;;;4199880;28;20459;-74
2022/01/08 05:41:39;;;;;;;3.93;2.60;;;1.30;99.90;;;;;;4202779;28;20472;-75
2022/01/08 05:43:41;;;;;;;5.23;2.80;;;1.30;99.90;;;;;;4179977;28;20471;-74
2022/01/08 05:45:45;;;;;;;3.60;2.60;;;1.30;99.90;;;;;;4194064;28;20488;-74
2022/01/08 05:47:50;;;;;;;4.70;2.70;;;1.30;99.90;;;;;;4212960;28;20500;-74
2022/01/08 05:49:51;;;;;;;5.33;2.93;;;1.30;99.90;;;;;;4194463;28;20878;-74
2022/01/08 05:51:53;;;;;;;4.20;2.47;;;1.30;99.90;;;;;;4190019;28;20563;-74
2022/01/08 05:53:56;;;;;;;5.93;3.13;;;1.30;99.90;;;;;;4179658;28;20463;-74
2022/01/08 05:55:58;;;;;;;4.90;2.80;;;1.30;99.90;;;;;;4195481;28;20954;-74
2022/01/08 05:58:00;;;;;;;4.83;2.90;;;1.30;99.90;;;;;;4196316;28;20458;-74
2022/01/08 06:00:07;;;;;;;7.13;3.27;;;1.30;99.90;;;;;;4196013;28;20526;-74
2022/01/08 06:02:09;;;;;;;5.83;3.20;;;1.30;99.90;;;;;;4195637;28;20474;-74
2022/01/08 06:04:11;;;;;;;4.17;2.93;;;1.40;99.90;;;;;;4206031;28;20460;-75
2022/01/08 06:06:12;;;;;;;6.30;3.03;;;1.40;99.90;;;;;;4198031;28;20690;-74
2022/01/08 06:08:14;;;;;;;5.13;3.00;;;1.40;99.90;;;;;;4179281;28;20465;-74
2022/01/08 06:10:18;;;;;;;5.43;3.27;;;1.40;99.90;;;;;;4191452;28;20521;-75
2022/01/08 06:12:20;;;;;;;5.47;3.10;;;1.40;99.90;;;;;;4216977;22;20522;-79
2022/01/08 06:14:22;;;;;;;6.00;3.20;;;1.40;99.90;;;;;;4180643;28;20457;-80
2022/01/08 06:16:24;;;;;;;4.80;3.20;;;1.40;99.90;;;;;;4179055;28;20819;-81
2022/01/08 06:18:26;;;;;;;6.93;3.10;;;1.40;99.90;;;;;;4179610;28;20467;-80
2022/01/08 06:20:28;;;;;;;6.00;3.40;;;1.40;99.90;;;;;;4184380;28;20472;-80
2022/01/08 06:22:29;;;;;;;5.90;2.93;;;1.40;99.90;;;;;;4198806;28;20509;-80
2022/01/08 06:24:31;;;;;;;5.20;3.37;;;1.40;99.90;;;;;;4199533;28;20915;-80
2022/01/08 06:26:35;;;;;;;5.90;3.33;;;1.40;99.90;;;;;;4193133;28;20485;-80
2022/01/08 06:28:37;;;;;;;6.00;3.57;;;1.50;99.90;;;;;;4199584;28;20457;-80
2022/01/08 06:30:38;;;;;;;4.93;3.13;;;1.50;99.90;;;;;;4199618;28;20486;-80
2022/01/08 06:32:40;;;;;;;6.57;3.60;;;1.50;99.90;;;;;;4192727;28;20464;-80
2022/01/08 06:34:42;;;;;;;5.83;3.90;;;1.50;99.90;;;;;;4197181;28;20477;-80
2022/01/08 06:36:44;;;;;;;6.73;3.60;;;1.50;99.90;;;;;;4199642;28;20451;-80
2022/01/08 06:38:46;;;;;;;8.00;3.50;;;1.40;99.90;;;;;;4198923;28;20516;-80
2022/01/08 06:40:47;;;;;;;6.07;3.40;;;1.50;99.90;;;;;;4199484;28;20447;-81
2022/01/08 06:42:51;;;;;;;7.60;3.57;;;1.50;99.90;;;;;;4200219;28;20544;-80
2022/01/08 06:44:52;;;;;;;7.40;3.43;;;1.60;99.90;;;;;;4193926;28;20470;-80
2022/01/08 06:46:54;;;;;;;9.17;3.57;;;1.60;99.90;;;;;;4197534;28;20490;-80
2022/01/08 06:48:56;;;;;;;5.47;3.10;;;1.60;99.90;;;;;;4199180;28;20603;-80
2022/01/08 06:50:58;;;;;;;4.33;3.17;;;1.60;99.90;;;;;;4195363;28;20471;-80
2022/01/08 06:52:59;;;;;;;7.33;3.13;;;1.60;99.90;;;;;;4198818;28;20467;-80
2022/01/08 06:55:01;;;;;;;4.67;3.20;;;1.70;99.90;;;;;;4199739;28;20451;-80
2022/01/08 06:57:03;;;;;;;5.03;2.97;;;1.60;99.90;;;;;;4199751;28;20462;-80
2022/01/08 06:59:06;;;;;;;5.33;3.37;;;1.60;99.90;;;;;;4199858;28;20467;-80
2022/01/08 07:01:08;;;;;;;6.53;3.47;;;1.70;99.90;;;;;;4197992;28;20497;-80
2022/01/08 07:03:11;;;;;;;5.90;3.33;;;1.60;99.90;;;;;;4190954;28;20529;-80
2022/01/08 07:05:13;;;;;;;5.93;3.30;;;1.60;99.90;;;;;;4197716;28;20458;-80
2022/01/08 07:07:15;;;;;;;5.63;3.07;;;1.60;99.90;;;;;;4198650;28;20498;-81
2022/01/08 07:09:16;;;;;;;5.63;3.27;;;1.60;99.90;;;;;;4200026;28;20451;-81
2022/01/08 07:11:18;;;;;;;5.63;3.57;;;1.70;99.90;;;;;;4199904;28;20490;-81
2022/01/08 07:13:20;;;;;;;6.40;3.33;;;1.70;99.90;;;;;;4197576;28;20471;-81
2022/01/08 07:15:23;;;;;;;4.53;3.20;;;1.90;99.90;;;;;;4199534;28;20463;-81
2022/01/08 07:17:25;;;;;;;4.80;3.30;;;1.70;99.90;;;;;;4198632;28;20470;-81
2022/01/08 07:19:26;;;;;;;5.43;3.47;;;1.70;99.90;;;;;;4199548;28;20834;-81
2022/01/08 07:21:28;;;;;;;5.53;3.47;;;1.70;99.90;;;;;;4191999;28;20491;-81
2022/01/08 07:23:30;;;;;;;7.03;3.60;;;1.70;99.90;;;;;;4199504;28;20923;-81
2022/01/08 07:25:32;;;;;;;6.40;3.70;;;1.70;99.90;;;;;;4199022;28;20463;-81
2022/01/08 07:27:34;;;;;;;5.10;3.43;;;1.70;99.90;;;;;;4199993;28;20494;-81
2022/01/08 07:29:36;;;;;;;6.40;3.37;;;1.70;99.90;;;;;;4199685;28;20459;-80
2022/01/08 07:31:39;;;;;;;6.07;3.43;;;1.70;99.90;;;;;;4185183;28;20487;-81
2022/01/08 07:33:41;;;;;;;5.80;3.50;;;1.70;99.90;;;;;;4185288;28;20459;-80
2022/01/08 07:35:43;;;;;;;5.70;3.47;;;1.70;99.90;;;;;;4202036;28;20470;-81
2022/01/08 07:37:45;;;;;;;5.37;3.20;;;1.70;99.90;;;;;;4200763;28;20451;-81
2022/01/08 07:39:46;;;;;;;5.80;3.27;;;1.70;99.90;;;;;;4202269;28;20456;-81
2022/01/08 07:41:48;;;;;;;5.57;3.40;;;1.70;99.90;;;;;;4203008;28;20487;-81
2022/01/08 07:43:50;;;;;;;7.53;3.73;;;1.70;99.90;;;;;;4197965;28;20461;-81
2022/01/08 07:45:52;;;;;;;5.97;3.47;;;1.70;99.90;;;;;;4203964;28;20446;-81
2022/01/08 07:47:55;;;;;;;7.13;3.30;;;1.70;99.90;;;;;;4197474;28;20449;-81
2022/01/08 07:49:58;;;;;;;4.90;3.20;;;1.70;99.90;;;;;;4193695;28;20555;-81
2022/01/08 07:52:00;;;;;;;6.00;3.50;;;2.00;99.90;;;;;;4198883;28;20521;-81
2022/01/08 07:54:02;;;;;;;4.70;3.57;;;1.80;99.90;;;;;;4199186;28;20470;-81
2022/01/08 07:56:05;;;;;;;7.53;3.40;;;1.80;99.90;;;;;;4196635;28;20475;-81
2022/01/08 07:58:07;;;;;;;5.17;3.50;;;1.80;99.90;;;;;;4198375;28;20848;-80
2022/01/08 08:00:10;;;;;;;7.27;3.60;;;1.80;99.90;;;;;;4198975;28;20468;-81
2022/01/08 08:02:12;;;;;;;5.20;3.23;;;1.80;99.90;;;;;;4194708;28;21010;-80
2022/01/08 08:04:15;;;;;;;5.10;3.10;;;1.80;99.90;;;;;;4190573;28;20841;-80
2022/01/08 08:06:17;;;;;;;4.30;3.07;;;1.80;99.90;;;;;;4199032;28;20470;-81
2022/01/08 08:08:20;;;;;;;8.07;3.70;;;1.80;99.90;;;;;;4198881;28;20465;-80
2022/01/08 08:10:24;;;;;;;6.33;3.43;;;1.90;99.90;;;;;;4198033;28;20467;-80
2022/01/08 08:12:25;;;;;;;6.10;3.10;;;1.90;99.90;;;;;;4152100;28;1099475;-80
2022/01/08 08:14:27;;;;;;;7.63;3.67;;;1.90;99.90;;;;;;4188696;28;20240;-80
2022/01/08 08:16:29;;;;;;;5.57;3.03;;;1.90;99.90;;;;;;4198019;28;20830;-80
2022/01/08 08:18:31;;;;;;;5.80;3.17;;;1.90;99.90;;;;;;4194748;28;20466;-81
2022/01/08 08:20:34;;;;;;;6.13;3.23;;;1.90;99.90;;;;;;4193756;28;20463;-80
2022/01/08 08:22:36;;;;;;;6.83;3.30;;;1.90;99.90;;;;;;4198898;28;20471;-80
2022/01/08 08:24:38;;;;;;;4.90;3.03;;;1.90;99.90;;;;;;4194095;28;20459;-80
2022/01/08 08:26:40;;;;;;;4.53;2.90;;;1.90;99.90;;;;;;4199119;28;20497;-80
2022/01/08 08:28:41;;;;;;;4.97;2.87;;;1.90;99.90;;;;;;4198132;28;20517;-81
2022/01/08 08:30:43;;;;;;;5.60;2.70;;;1.90;99.90;;;;;;4193047;28;20604;-81
2022/01/08 08:32:45;;;;;;;4.83;2.70;;;1.90;99.90;;;;;;4195586;28;20459;-81
2022/01/08 08:34:47;;;;;;;8.00;3.23;;;1.90;99.90;;;;;;4199567;28;20461;-81
2022/01/08 08:36:51;;;;;;;4.47;2.83;;;1.90;99.90;;;;;;4198878;28;20447;-79
2022/01/08 08:38:52;;;;;;;5.17;2.73;;;1.90;99.90;;;;;;4197075;28;20444;-80
2022/01/08 08:40:54;;;;;;;3.50;2.60;;;1.90;99.90;;;;;;4194220;28;20451;-80
2022/01/08 08:42:56;;;;;;;3.50;2.47;;;2.00;99.90;;;;;;4193386;28;20528;-80
2022/01/08 08:44:58;;;;;;;5.30;2.67;;;2.00;99.90;;;;;;4198422;28;20533;-80
2022/01/08 08:47:00;;;;;;;4.50;2.43;;;2.00;99.90;;;;;;4200630;28;20582;-81
2022/01/08 08:49:02;;;;;;;3.00;2.30;;;2.00;99.90;;;;;;4195640;28;20460;-81
2022/01/08 08:51:04;;;;;;;6.47;2.57;;;2.00;99.90;;;;;;4196250;28;21051;-80
2022/01/08 08:53:07;;;;;;;3.93;2.10;;;2.00;99.90;;;;;;4198340;28;20965;-80
2022/01/08 08:55:10;;;;;;;3.37;2.30;;;2.00;99.90;;;;;;4193108;28;20465;-80
2022/01/08 08:57:11;;;;;;;3.87;2.40;;;2.00;99.90;;;;;;4197518;28;20461;-80
2022/01/08 08:59:13;;;;;;;4.23;2.37;;;2.10;99.90;;;;;;4191983;28;20445;-80
2022/01/08 09:01:15;;;;;;;3.87;2.43;;;2.00;99.90;;;;;;4188247;28;20491;-80
2022/01/08 09:03:17;;;;;;;4.20;2.30;;;2.00;99.90;;;;;;4197320;28;20475;-80
2022/01/08 09:05:19;;;;;;;6.03;2.80;;;2.00;99.90;;;;;;4193464;28;20471;-81
2022/01/08 09:07:21;;;;;;;6.07;2.90;;;2.00;99.90;;;;;;4183273;28;20491;-80
2022/01/08 09:09:24;;;;;;;3.50;2.43;;;2.10;99.90;;;;;;4198563;28;20924;-81
2022/01/08 09:11:27;;;;;;;4.90;2.63;;;2.10;99.90;;;;;;4197651;28;20541;-80
2022/01/08 09:13:28;;;;;;;6.10;2.90;;;2.10;99.90;;;;;;4197395;28;20463;-80
2022/01/08 09:15:30;;;;;;;6.90;3.50;;;2.10;99.90;;;;;;4195714;28;20471;-81
2022/01/08 09:17:33;;;;;;;6.43;3.73;;;2.10;99.90;;;;;;4199437;28;20451;-81
2022/01/08 09:19:35;;;;;;;4.83;2.93;;;2.10;99.90;;;;;;4199583;28;20980;-81
2022/01/08 09:21:36;;;;;;;5.53;3.00;;;2.10;99.90;;;;;;4199275;28;20494;-81
2022/01/08 09:23:38;;;;;;;6.37;2.80;;;2.10;99.90;;;;;;4190507;28;20969;-81
2022/01/08 09:25:42;;;;;;;4.90;2.50;;;2.20;99.90;;;;;;4196021;28;20518;-80
2022/01/08 09:27:44;;;;;;;4.63;2.53;;;2.20;99.90;;;;;;4198423;28;20891;-81
2022/01/08 09:29:45;;;;;;;4.43;2.40;;;2.30;99.90;;;;;;4198468;28;20529;-81
2022/01/08 09:31:47;;;;;;;3.67;2.00;;;2.30;99.90;;;;;;4199550;28;20864;-80
2022/01/08 09:33:49;;;;;;;5.60;2.10;;;2.30;99.90;;;;;;4198311;28;20484;-81
2022/01/08 09:35:52;;;;;;;3.90;1.80;;;2.30;99.90;;;;;;4196242;28;20994;-81
2022/01/08 09:37:54;;;;;;;5.27;2.23;;;2.40;99.90;;;;;;4196624;28;20471;-81
2022/01/08 09:39:56;;;;;;;5.10;2.13;;;2.40;99.90;;;;;;4193480;28;20804;-81
2022/01/08 09:42:00;;;;;;;5.37;2.20;;;2.40;99.90;;;;;;4196698;28;20484;-81
2022/01/08 09:44:02;;;;;;;3.50;2.00;;;2.50;99.90;;;;;;4192594;28;20465;-81
2022/01/08 09:46:04;;;;;;;4.60;2.13;;;2.50;99.90;;;;;;4200360;28;20460;-81
2022/01/08 09:48:06;;;;;;;5.33;2.13;;;2.50;99.90;;;;;;4199988;28;20483;-81
2022/01/08 09:50:09;;;;;;;4.13;2.03;;;2.50;99.90;;;;;;4200487;28;20965;-81
2022/01/08 09:52:12;;;;;;;5.27;2.47;;;2.50;99.90;;;;;;4193450;28;20506;-81
2022/01/08 09:54:13;;;;;;;4.17;2.10;;;2.60;99.90;;;;;;4199521;28;20474;-81
2022/01/08 09:56:15;;;;;;;5.90;2.47;;;2.60;99.90;;;;;;4197450;28;20876;-80
2022/01/08 09:58:19;;;;;;;4.30;2.33;;;2.60;99.90;;;;;;4202435;28;20928;-81
2022/01/08 10:00:21;;;;;;;4.07;2.37;;;2.60;99.90;;;;;;4197523;28;20483;-81
2022/01/08 10:02:24;;;;;;;4.00;1.87;;;2.70;99.90;;;;;;4203967;28;20476;-82
2022/01/08 10:04:29;;;;;;;5.10;2.30;;;2.70;99.90;;;;;;4202011;28;21001;-80
2022/01/08 10:06:33;;;;;;;6.40;2.33;;;2.70;99.90;;;;;;4201779;28;20442;-79
2022/01/08 10:08:35;;;;;;;4.33;2.50;;;2.80;99.90;;;;;;4202456;28;20483;-80
2022/01/08 10:10:37;;;;;;;5.17;2.50;;;2.80;99.90;;;;;;4205884;28;20519;-81
2022/01/08 10:12:41;;;;;;;5.20;2.43;;;2.80;99.90;;;;;;4203179;28;20464;-80
2022/01/08 10:17:17;;;;;;;5.07;2.47;;;2.90;99.90;;;;;;4200870;28;20464;-82
2022/01/08 10:19:21;;;;;;;6.10;2.77;;;2.80;99.90;;;;;;4200589;28;20436;-81
2022/01/08 10:21:24;;;;;;;6.67;2.83;;;2.90;99.90;;;;;;4199014;28;21035;-82
2022/01/08 10:23:28;;;;;;;4.10;2.10;;;2.90;99.90;;;;;;4202451;28;20848;-85
2022/01/08 10:25:30;;;;;;;4.33;2.40;;;2.90;99.90;;;;;;4199922;28;20976;-81
2022/01/08 10:27:36;;;;;;;4.03;2.23;;;3.00;99.90;;;;;;4203611;28;20487;-80
2022/01/08 10:29:37;;;;;;;6.00;2.40;;;2.90;99.90;;;;;;4201552;28;20460;-81
2022/01/08 10:31:42;;;;;;;5.90;2.67;;;2.90;99.90;;;;;;4202043;28;20496;-81
2022/01/08 10:33:48;;;;;;;6.60;2.97;;;3.00;99.90;;;;;;4201733;28;20440;-80
2022/01/08 10:35:51;;;;;;;6.53;3.10;;;3.00;99.90;;;;;;4203569;28;20460;-81
2022/01/08 10:37:53;;;;;;;7.10;2.67;;;3.00;99.90;;;;;;4202480;28;20466;-81
2022/01/08 10:39:55;;;;;;;4.40;2.80;;;3.00;99.90;;;;;;4200350;28;20452;-80
2022/01/08 10:41:59;;;;;;;4.53;2.60;;;3.00;99.90;;;;;;4202830;28;20483;-82
2022/01/08 10:44:11;;;;;;;5.07;2.30;;;3.00;99.90;;;;;;4194599;28;21035;-83
2022/01/08 10:46:15;;;;;;;4.70;2.43;;;3.10;99.90;;;;;;4204070;28;20456;-84
2022/01/08 10:48:30;;;;;;;6.13;2.60;;;3.10;99.90;;;;;;4203275;28;20491;-87
2022/01/08 10:50:32;;;;;;;4.90;2.83;;;3.10;99.90;;;;;;4206047;28;20451;-83
2022/01/08 10:52:42;;;;;;;5.37;2.43;;;3.10;99.90;;;;;;4201026;28;20500;-83
2022/01/08 10:54:45;;;;;;;5.47;2.60;;;3.10;99.90;;;;;;4201305;28;20458;-82
2022/01/08 10:56:50;;;;;;;7.03;3.10;;;3.00;99.90;;;;;;4201424;28;20491;-83
2022/01/08 10:58:55;;;;;;;5.67;2.53;;;3.00;99.90;;;;;;4196386;28;20469;-83
2022/01/08 11:00:57;;;;;;;6.87;2.90;;;3.00;99.90;;;;;;4193274;28;20484;-82
2022/01/08 11:02:59;;;;;;;5.30;2.70;;;3.00;99.90;;;;;;4195265;28;20464;-83
2022/01/08 11:05:06;;;;;;;5.87;2.73;;;3.10;99.90;;;;;;4199859;28;20471;-82